Terminal Aerodrome Forecast
Issued by NWS Mt. Holly, NJ

Home | Current Version | Previous Version | Text Only | Print | Product List | Glossary On
Versions: 1 2 3 4 5 6 7 8 9 10 11 12 13 14
000
FTUS41 KPHI 311128
TAFTTN
TAF
KTTN 311128Z 3112/0112 00000KT 3SM BR SCT007
     FM311300 24003KT P6SM SCT250
     FM312000 24007KT P6SM SCT060 BKN150
     FM010500 20003KT P6SM -SHRA OVC070
     FM010900 36003KT 4SM -SHRA BR OVC015=

USA.gov is the U.S. government's official web portal to all federal, state and local government web resources and services.